sensor_id;sensor_type;location;lat;lon;timestamp;P1;durP1;ratioP1;P2;durP2;ratioP2
20649;SDS011;10484;48.736;9.332;2022-11-20T00:00:45;4.77;;;3.50;;
20649;SDS011;10484;48.736;9.332;2022-11-20T00:03:11;4.67;;;3.60;;
20649;SDS011;10484;48.736;9.332;2022-11-20T00:05:37;5.00;;;3.30;;
20649;SDS011;10484;48.736;9.332;2022-11-20T00:08:03;6.30;;;4.23;;
20649;SDS011;10484;48.736;9.332;2022-11-20T00:10:29;3.83;;;3.40;;
20649;SDS011;10484;48.736;9.332;2022-11-20T00:12:57;4.55;;;3.13;;
20649;SDS011;10484;48.736;9.332;2022-11-20T00:15:23;3.77;;;2.83;;
20649;SDS011;10484;48.736;9.332;2022-11-20T00:17:49;5.03;;;3.67;;
20649;SDS011;10484;48.736;9.332;2022-11-20T00:20:15;5.23;;;3.90;;
20649;SDS011;10484;48.736;9.332;2022-11-20T00:22:40;4.63;;;3.10;;
20649;SDS011;10484;48.736;9.332;2022-11-20T00:25:06;4.87;;;3.50;;
20649;SDS011;10484;48.736;9.332;2022-11-20T00:27:32;4.10;;;3.50;;
20649;SDS011;10484;48.736;9.332;2022-11-20T00:29:58;5.23;;;2.90;;
20649;SDS011;10484;48.736;9.332;2022-11-20T00:32:23;6.97;;;3.60;;
20649;SDS011;10484;48.736;9.332;2022-11-20T00:34:49;4.17;;;2.80;;
20649;SDS011;10484;48.736;9.332;2022-11-20T00:37:14;5.20;;;3.57;;
20649;SDS011;10484;48.736;9.332;2022-11-20T00:39:40;4.33;;;3.40;;
20649;SDS011;10484;48.736;9.332;2022-11-20T00:42:06;4.20;;;3.17;;
20649;SDS011;10484;48.736;9.332;2022-11-20T00:44:31;6.70;;;2.93;;
20649;SDS011;10484;48.736;9.332;2022-11-20T00:46:57;8.97;;;3.40;;
20649;SDS011;10484;48.736;9.332;2022-11-20T00:49:22;3.97;;;3.13;;
20649;SDS011;10484;48.736;9.332;2022-11-20T00:51:48;5.97;;;3.73;;
20649;SDS011;10484;48.736;9.332;2022-11-20T00:54:14;5.93;;;3.17;;
20649;SDS011;10484;48.736;9.332;2022-11-20T00:56:39;5.30;;;3.10;;
20649;SDS011;10484;48.736;9.332;2022-11-20T00:59:05;3.90;;;2.83;;
20649;SDS011;10484;48.736;9.332;2022-11-20T01:01:31;5.63;;;3.53;;
20649;SDS011;10484;48.736;9.332;2022-11-20T01:03:57;3.63;;;3.17;;
20649;SDS011;10484;48.736;9.332;2022-11-20T01:06:25;5.15;;;3.58;;
20649;SDS011;10484;48.736;9.332;2022-11-20T01:08:54;3.72;;;3.08;;
20649;SDS011;10484;48.736;9.332;2022-11-20T01:11:26;3.70;;;2.80;;
20649;SDS011;10484;48.736;9.332;2022-11-20T01:13:53;4.05;;;2.90;;
20649;SDS011;10484;48.736;9.332;2022-11-20T01:18:47;3.40;;;3.03;;
20649;SDS011;10484;48.736;9.332;2022-11-20T01:21:19;4.22;;;2.83;;
20649;SDS011;10484;48.736;9.332;2022-11-20T01:23:47;3.45;;;3.08;;
20649;SDS011;10484;48.736;9.332;2022-11-20T01:26:15;3.63;;;2.27;;
20649;SDS011;10484;48.736;9.332;2022-11-20T01:28:42;4.90;;;2.90;;
20649;SDS011;10484;48.736;9.332;2022-11-20T01:33:48;4.80;;;3.15;;
20649;SDS011;10484;48.736;9.332;2022-11-20T01:36:16;4.63;;;3.17;;
20649;SDS011;10484;48.736;9.332;2022-11-20T01:38:43;5.07;;;2.73;;
20649;SDS011;10484;48.736;9.332;2022-11-20T01:41:09;4.70;;;2.70;;
20649;SDS011;10484;48.736;9.332;2022-11-20T01:43:56;3.80;;;3.00;;
20649;SDS011;10484;48.736;9.332;2022-11-20T01:46:22;3.40;;;2.60;;
20649;SDS011;10484;48.736;9.332;2022-11-20T01:52:16;3.33;;;2.40;;
20649;SDS011;10484;48.736;9.332;2022-11-20T01:54:48;4.03;;;2.60;;
20649;SDS011;10484;48.736;9.332;2022-11-20T01:57:19;3.20;;;2.90;;
20649;SDS011;10484;48.736;9.332;2022-11-20T01:59:49;3.10;;;2.30;;
20649;SDS011;10484;48.736;9.332;2022-11-20T02:02:22;3.05;;;2.20;;
20649;SDS011;10484;48.736;9.332;2022-11-20T02:04:48;2.97;;;2.67;;
20649;SDS011;10484;48.736;9.332;2022-11-20T02:07:16;3.70;;;2.63;;
20649;SDS011;10484;48.736;9.332;2022-11-20T02:09:42;4.90;;;2.72;;
20649;SDS011;10484;48.736;9.332;2022-11-20T02:12:08;6.43;;;2.73;;
20649;SDS011;10484;48.736;9.332;2022-11-20T02:14:53;2.92;;;2.15;;
20649;SDS011;10484;48.736;9.332;2022-11-20T02:17:19;2.10;;;1.77;;
20649;SDS011;10484;48.736;9.332;2022-11-20T02:19:45;3.13;;;2.40;;
20649;SDS011;10484;48.736;9.332;2022-11-20T02:22:14;2.90;;;2.13;;
20649;SDS011;10484;48.736;9.332;2022-11-20T02:24:51;2.47;;;2.28;;
20649;SDS011;10484;48.736;9.332;2022-11-20T02:27:17;3.17;;;2.30;;
20649;SDS011;10484;48.736;9.332;2022-11-20T02:29:48;3.42;;;2.42;;
20649;SDS011;10484;48.736;9.332;2022-11-20T02:32:27;3.67;;;2.47;;
20649;SDS011;10484;48.736;9.332;2022-11-20T02:34:54;4.63;;;2.60;;
20649;SDS011;10484;48.736;9.332;2022-11-20T02:37:20;2.30;;;1.87;;
20649;SDS011;10484;48.736;9.332;2022-11-20T02:39:47;4.30;;;2.60;;
20649;SDS011;10484;48.736;9.332;2022-11-20T02:42:15;2.80;;;2.60;;
20649;SDS011;10484;48.736;9.332;2022-11-20T02:44:40;2.93;;;2.40;;
20649;SDS011;10484;48.736;9.332;2022-11-20T02:47:06;3.30;;;2.53;;
20649;SDS011;10484;48.736;9.332;2022-11-20T02:49:32;5.78;;;2.58;;
20649;SDS011;10484;48.736;9.332;2022-11-20T02:51:58;5.43;;;2.30;;
20649;SDS011;10484;48.736;9.332;2022-11-20T02:54:24;3.67;;;2.00;;
20649;SDS011;10484;48.736;9.332;2022-11-20T02:56:50;2.92;;;2.53;;
20649;SDS011;10484;48.736;9.332;2022-11-20T02:59:16;3.23;;;2.10;;
20649;SDS011;10484;48.736;9.332;2022-11-20T03:01:41;3.53;;;2.73;;
20649;SDS011;10484;48.736;9.332;2022-11-20T03:04:07;4.10;;;2.87;;
20649;SDS011;10484;48.736;9.332;2022-11-20T03:06:33;3.53;;;2.40;;
20649;SDS011;10484;48.736;9.332;2022-11-20T03:08:58;5.80;;;2.50;;
20649;SDS011;10484;48.736;9.332;2022-11-20T03:11:24;3.00;;;2.67;;
20649;SDS011;10484;48.736;9.332;2022-11-20T03:13:50;2.67;;;2.47;;
20649;SDS011;10484;48.736;9.332;2022-11-20T03:16:17;2.37;;;2.17;;
20649;SDS011;10484;48.736;9.332;2022-11-20T03:18:47;3.67;;;2.63;;
20649;SDS011;10484;48.736;9.332;2022-11-20T03:21:13;3.42;;;2.50;;
20649;SDS011;10484;48.736;9.332;2022-11-20T03:23:40;5.50;;;3.63;;
20649;SDS011;10484;48.736;9.332;2022-11-20T03:26:09;4.13;;;2.53;;
20649;SDS011;10484;48.736;9.332;2022-11-20T03:28:40;3.58;;;2.90;;
20649;SDS011;10484;48.736;9.332;2022-11-20T03:31:08;2.70;;;2.20;;
20649;SDS011;10484;48.736;9.332;2022-11-20T03:33:35;6.10;;;3.33;;
20649;SDS011;10484;48.736;9.332;2022-11-20T03:36:05;4.25;;;3.35;;
20649;SDS011;10484;48.736;9.332;2022-11-20T03:38:32;4.60;;;2.57;;
20649;SDS011;10484;48.736;9.332;2022-11-20T03:41:02;4.72;;;3.50;;
20649;SDS011;10484;48.736;9.332;2022-11-20T03:43:29;4.07;;;3.13;;
20649;SDS011;10484;48.736;9.332;2022-11-20T03:45:55;4.37;;;2.83;;
20649;SDS011;10484;48.736;9.332;2022-11-20T03:48:21;5.50;;;3.50;;
20649;SDS011;10484;48.736;9.332;2022-11-20T03:50:46;5.67;;;3.70;;
20649;SDS011;10484;48.736;9.332;2022-11-20T03:53:13;3.57;;;2.57;;
20649;SDS011;10484;48.736;9.332;2022-11-20T03:55:39;4.30;;;2.90;;
20649;SDS011;10484;48.736;9.332;2022-11-20T03:58:05;3.30;;;2.53;;
20649;SDS011;10484;48.736;9.332;2022-11-20T04:00:30;5.10;;;2.87;;
20649;SDS011;10484;48.736;9.332;2022-11-20T04:03:00;4.80;;;3.40;;
20649;SDS011;10484;48.736;9.332;2022-11-20T04:05:26;3.60;;;2.97;;
20649;SDS011;10484;48.736;9.332;2022-11-20T04:07:52;2.70;;;2.50;;
20649;SDS011;10484;48.736;9.332;2022-11-20T04:10:17;5.90;;;3.40;;
20649;SDS011;10484;48.736;9.332;2022-11-20T04:12:43;3.93;;;2.80;;
20649;SDS011;10484;48.736;9.332;2022-11-20T04:15:09;4.83;;;3.30;;
20649;SDS011;10484;48.736;9.332;2022-11-20T04:17:35;6.03;;;3.33;;
20649;SDS011;10484;48.736;9.332;2022-11-20T04:20:00;3.70;;;2.77;;
20649;SDS011;10484;48.736;9.332;2022-11-20T04:22:26;3.95;;;2.90;;
20649;SDS011;10484;48.736;9.332;2022-11-20T04:24:52;4.60;;;3.10;;
20649;SDS011;10484;48.736;9.332;2022-11-20T04:27:18;3.37;;;2.20;;
20649;SDS011;10484;48.736;9.332;2022-11-20T04:29:43;6.70;;;2.60;;
20649;SDS011;10484;48.736;9.332;2022-11-20T04:32:09;3.17;;;2.57;;
20649;SDS011;10484;48.736;9.332;2022-11-20T04:34:34;2.03;;;1.93;;
20649;SDS011;10484;48.736;9.332;2022-11-20T04:37:00;3.93;;;2.33;;
20649;SDS011;10484;48.736;9.332;2022-11-20T04:39:26;6.43;;;2.37;;
20649;SDS011;10484;48.736;9.332;2022-11-20T04:41:52;3.20;;;2.67;;
20649;SDS011;10484;48.736;9.332;2022-11-20T04:44:37;3.65;;;1.75;;
20649;SDS011;10484;48.736;9.332;2022-11-20T04:47:03;3.67;;;2.77;;
20649;SDS011;10484;48.736;9.332;2022-11-20T04:49:29;5.80;;;3.23;;
20649;SDS011;10484;48.736;9.332;2022-11-20T04:51:56;3.63;;;2.13;;
20649;SDS011;10484;48.736;9.332;2022-11-20T04:54:22;5.43;;;2.57;;
20649;SDS011;10484;48.736;9.332;2022-11-20T04:56:48;2.80;;;1.90;;
20649;SDS011;10484;48.736;9.332;2022-11-20T04:59:13;2.60;;;1.73;;
20649;SDS011;10484;48.736;9.332;2022-11-20T05:01:39;3.40;;;1.90;;
20649;SDS011;10484;48.736;9.332;2022-11-20T05:04:05;3.33;;;1.80;;
20649;SDS011;10484;48.736;9.332;2022-11-20T05:06:30;2.20;;;1.90;;
20649;SDS011;10484;48.736;9.332;2022-11-20T05:08:56;2.93;;;1.70;;
20649;SDS011;10484;48.736;9.332;2022-11-20T05:11:22;5.10;;;2.87;;
20649;SDS011;10484;48.736;9.332;2022-11-20T05:13:48;1.80;;;1.47;;
20649;SDS011;10484;48.736;9.332;2022-11-20T05:16:17;3.60;;;2.50;;
20649;SDS011;10484;48.736;9.332;2022-11-20T05:18:45;4.00;;;2.50;;
20649;SDS011;10484;48.736;9.332;2022-11-20T05:21:13;2.55;;;2.22;;
20649;SDS011;10484;48.736;9.332;2022-11-20T05:23:39;4.95;;;2.50;;
20649;SDS011;10484;48.736;9.332;2022-11-20T05:26:07;3.20;;;2.20;;
20649;SDS011;10484;48.736;9.332;2022-11-20T05:28:37;3.50;;;2.50;;
20649;SDS011;10484;48.736;9.332;2022-11-20T05:31:09;2.63;;;1.97;;
20649;SDS011;10484;48.736;9.332;2022-11-20T05:33:39;3.00;;;2.70;;
20649;SDS011;10484;48.736;9.332;2022-11-20T05:36:05;3.38;;;2.70;;
20649;SDS011;10484;48.736;9.332;2022-11-20T05:38:32;2.70;;;2.10;;
20649;SDS011;10484;48.736;9.332;2022-11-20T05:41:07;4.55;;;2.72;;
20649;SDS011;10484;48.736;9.332;2022-11-20T05:43:35;1.98;;;1.70;;
20649;SDS011;10484;48.736;9.332;2022-11-20T05:46:02;2.50;;;2.03;;
20649;SDS011;10484;48.736;9.332;2022-11-20T05:48:28;3.45;;;2.88;;
20649;SDS011;10484;48.736;9.332;2022-11-20T05:50:56;3.23;;;1.83;;
20649;SDS011;10484;48.736;9.332;2022-11-20T05:53:23;2.75;;;1.92;;
20649;SDS011;10484;48.736;9.332;2022-11-20T05:55:56;2.28;;;1.63;;
20649;SDS011;10484;48.736;9.332;2022-11-20T05:58:30;4.28;;;2.40;;
20649;SDS011;10484;48.736;9.332;2022-11-20T06:01:07;2.95;;;2.15;;
20649;SDS011;10484;48.736;9.332;2022-11-20T06:03:38;2.40;;;1.50;;
20649;SDS011;10484;48.736;9.332;2022-11-20T06:06:07;2.08;;;1.88;;
20649;SDS011;10484;48.736;9.332;2022-11-20T06:08:33;3.08;;;1.90;;
20649;SDS011;10484;48.736;9.332;2022-11-20T06:11:02;1.77;;;1.50;;
20649;SDS011;10484;48.736;9.332;2022-11-20T06:13:29;1.70;;;1.50;;
20649;SDS011;10484;48.736;9.332;2022-11-20T06:15:55;4.60;;;1.60;;
20649;SDS011;10484;48.736;9.332;2022-11-20T06:18:20;2.93;;;1.50;;
20649;SDS011;10484;48.736;9.332;2022-11-20T06:20:46;1.93;;;1.40;;
20649;SDS011;10484;48.736;9.332;2022-11-20T06:23:12;2.80;;;1.83;;
20649;SDS011;10484;48.736;9.332;2022-11-20T06:25:38;2.78;;;1.50;;
20649;SDS011;10484;48.736;9.332;2022-11-20T06:28:08;2.65;;;1.27;;
20649;SDS011;10484;48.736;9.332;2022-11-20T06:30:34;2.00;;;1.50;;
20649;SDS011;10484;48.736;9.332;2022-11-20T06:33:00;2.13;;;1.65;;
20649;SDS011;10484;48.736;9.332;2022-11-20T06:35:26;1.73;;;1.60;;
20649;SDS011;10484;48.736;9.332;2022-11-20T06:37:52;2.10;;;1.73;;
20649;SDS011;10484;48.736;9.332;2022-11-20T06:40:17;2.93;;;2.33;;
20649;SDS011;10484;48.736;9.332;2022-11-20T06:42:43;3.60;;;2.07;;
20649;SDS011;10484;48.736;9.332;2022-11-20T06:45:09;2.00;;;1.80;;
20649;SDS011;10484;48.736;9.332;2022-11-20T06:47:35;3.23;;;1.93;;
20649;SDS011;10484;48.736;9.332;2022-11-20T06:50:01;2.53;;;1.47;;
20649;SDS011;10484;48.736;9.332;2022-11-20T06:52:26;3.00;;;1.77;;
20649;SDS011;10484;48.736;9.332;2022-11-20T06:54:52;4.00;;;2.47;;
20649;SDS011;10484;48.736;9.332;2022-11-20T06:57:17;3.33;;;2.30;;
20649;SDS011;10484;48.736;9.332;2022-11-20T06:59:43;3.10;;;1.87;;
20649;SDS011;10484;48.736;9.332;2022-11-20T07:02:11;1.53;;;1.43;;
20649;SDS011;10484;48.736;9.332;2022-11-20T07:04:37;2.88;;;1.67;;
20649;SDS011;10484;48.736;9.332;2022-11-20T07:07:03;2.80;;;1.70;;
20649;SDS011;10484;48.736;9.332;2022-11-20T07:09:29;1.77;;;1.60;;
20649;SDS011;10484;48.736;9.332;2022-11-20T07:11:54;2.30;;;1.13;;
20649;SDS011;10484;48.736;9.332;2022-11-20T07:14:20;2.20;;;1.67;;
20649;SDS011;10484;48.736;9.332;2022-11-20T07:16:46;2.30;;;2.10;;
20649;SDS011;10484;48.736;9.332;2022-11-20T07:19:11;2.13;;;1.67;;
20649;SDS011;10484;48.736;9.332;2022-11-20T07:21:37;1.67;;;1.50;;
20649;SDS011;10484;48.736;9.332;2022-11-20T07:24:02;3.00;;;2.07;;
20649;SDS011;10484;48.736;9.332;2022-11-20T07:26:28;2.90;;;1.77;;
20649;SDS011;10484;48.736;9.332;2022-11-20T07:28:54;1.90;;;1.30;;
20649;SDS011;10484;48.736;9.332;2022-11-20T07:31:19;2.30;;;2.10;;
20649;SDS011;10484;48.736;9.332;2022-11-20T07:33:45;3.20;;;1.80;;
20649;SDS011;10484;48.736;9.332;2022-11-20T07:36:11;3.38;;;1.70;;
20649;SDS011;10484;48.736;9.332;2022-11-20T07:38:37;2.33;;;1.70;;
20649;SDS011;10484;48.736;9.332;2022-11-20T07:41:03;3.35;;;1.92;;
20649;SDS011;10484;48.736;9.332;2022-11-20T07:43:29;4.27;;;2.93;;
20649;SDS011;10484;48.736;9.332;2022-11-20T07:45:55;7.70;;;5.30;;
20649;SDS011;10484;48.736;9.332;2022-11-20T07:48:22;5.95;;;3.70;;
20649;SDS011;10484;48.736;9.332;2022-11-20T07:50:48;2.83;;;1.90;;
20649;SDS011;10484;48.736;9.332;2022-11-20T07:53:13;2.30;;;1.50;;
20649;SDS011;10484;48.736;9.332;2022-11-20T07:55:41;4.50;;;2.70;;
20649;SDS011;10484;48.736;9.332;2022-11-20T07:58:07;9.47;;;6.87;;
20649;SDS011;10484;48.736;9.332;2022-11-20T08:00:32;7.90;;;5.50;;
20649;SDS011;10484;48.736;9.332;2022-11-20T08:02:58;5.50;;;3.60;;
20649;SDS011;10484;48.736;9.332;2022-11-20T08:05:24;3.00;;;2.47;;
20649;SDS011;10484;48.736;9.332;2022-11-20T08:07:49;4.60;;;3.67;;
20649;SDS011;10484;48.736;9.332;2022-11-20T08:10:15;2.90;;;2.63;;
20649;SDS011;10484;48.736;9.332;2022-11-20T08:12:48;2.35;;;1.95;;
20649;SDS011;10484;48.736;9.332;2022-11-20T08:15:33;4.10;;;2.50;;
20649;SDS011;10484;48.736;9.332;2022-11-20T08:18:03;2.22;;;1.42;;
20649;SDS011;10484;48.736;9.332;2022-11-20T08:20:31;1.98;;;1.30;;
20649;SDS011;10484;48.736;9.332;2022-11-20T08:23:00;2.30;;;1.65;;
20649;SDS011;10484;48.736;9.332;2022-11-20T08:25:28;2.30;;;1.25;;
20649;SDS011;10484;48.736;9.332;2022-11-20T08:27:56;1.73;;;1.25;;
20649;SDS011;10484;48.736;9.332;2022-11-20T08:30:26;2.25;;;1.95;;
20649;SDS011;10484;48.736;9.332;2022-11-20T08:32:52;8.87;;;4.43;;
20649;SDS011;10484;48.736;9.332;2022-11-20T08:35:19;2.75;;;1.50;;
20649;SDS011;10484;48.736;9.332;2022-11-20T08:37:46;1.73;;;1.30;;
20649;SDS011;10484;48.736;9.332;2022-11-20T08:40:12;1.73;;;1.60;;
20649;SDS011;10484;48.736;9.332;2022-11-20T08:42:45;2.97;;;1.47;;
20649;SDS011;10484;48.736;9.332;2022-11-20T08:45:15;1.85;;;1.75;;
20649;SDS011;10484;48.736;9.332;2022-11-20T08:47:41;2.28;;;1.98;;
20649;SDS011;10484;48.736;9.332;2022-11-20T08:50:08;2.88;;;1.58;;
20649;SDS011;10484;48.736;9.332;2022-11-20T08:52:35;1.52;;;1.42;;
20649;SDS011;10484;48.736;9.332;2022-11-20T08:55:01;2.38;;;2.17;;
20649;SDS011;10484;48.736;9.332;2022-11-20T08:57:27;3.20;;;1.67;;
20649;SDS011;10484;48.736;9.332;2022-11-20T08:59:53;2.60;;;1.53;;
20649;SDS011;10484;48.736;9.332;2022-11-20T09:02:18;1.80;;;1.43;;
20649;SDS011;10484;48.736;9.332;2022-11-20T09:04:44;2.50;;;1.50;;
20649;SDS011;10484;48.736;9.332;2022-11-20T09:07:10;1.60;;;1.50;;
20649;SDS011;10484;48.736;9.332;2022-11-20T09:09:35;2.23;;;1.33;;
20649;SDS011;10484;48.736;9.332;2022-11-20T09:12:01;1.43;;;1.27;;
20649;SDS011;10484;48.736;9.332;2022-11-20T09:14:26;2.80;;;2.57;;
20649;SDS011;10484;48.736;9.332;2022-11-20T09:16:57;1.55;;;1.45;;
20649;SDS011;10484;48.736;9.332;2022-11-20T09:19:26;3.78;;;1.70;;
20649;SDS011;10484;48.736;9.332;2022-11-20T09:21:51;3.15;;;1.58;;
20649;SDS011;10484;48.736;9.332;2022-11-20T09:24:17;1.97;;;1.77;;
20649;SDS011;10484;48.736;9.332;2022-11-20T09:26:43;1.88;;;1.75;;
20649;SDS011;10484;48.736;9.332;2022-11-20T09:29:09;1.63;;;1.20;;
20649;SDS011;10484;48.736;9.332;2022-11-20T09:31:35;2.17;;;2.00;;
20649;SDS011;10484;48.736;9.332;2022-11-20T09:34:01;1.63;;;0.90;;
20649;SDS011;10484;48.736;9.332;2022-11-20T09:36:27;1.37;;;1.27;;
20649;SDS011;10484;48.736;9.332;2022-11-20T09:38:52;1.40;;;1.30;;
20649;SDS011;10484;48.736;9.332;2022-11-20T09:47:31;1.48;;;1.00;;
20649;SDS011;10484;48.736;9.332;2022-11-20T09:50:19;0.70;;;0.60;;
20649;SDS011;10484;48.736;9.332;2022-11-20T09:53:33;1.77;;;0.60;;
20649;SDS011;10484;48.736;9.332;2022-11-20T09:55:55;0.70;;;0.60;;
20649;SDS011;10484;48.736;9.332;2022-11-20T09:58:27;0.63;;;0.60;;
20649;SDS011;10484;48.736;9.332;2022-11-20T10:01:00;0.70;;;0.70;;
20649;SDS011;10484;48.736;9.332;2022-11-20T10:03:41;0.73;;;0.55;;
20649;SDS011;10484;48.736;9.332;2022-11-20T10:06:16;0.80;;;0.80;;
20649;SDS011;10484;48.736;9.332;2022-11-20T10:31:31;1.33;;;0.95;;
20649;SDS011;10484;48.736;9.332;2022-11-20T10:34:01;1.13;;;0.63;;
20649;SDS011;10484;48.736;9.332;2022-11-20T10:36:38;1.33;;;1.00;;
20649;SDS011;10484;48.736;9.332;2022-11-20T10:39:18;0.70;;;0.45;;
20649;SDS011;10484;48.736;9.332;2022-11-20T10:41:51;1.60;;;0.70;;
20649;SDS011;10484;48.736;9.332;2022-11-20T10:44:24;0.50;;;0.47;;
20649;SDS011;10484;48.736;9.332;2022-11-20T10:47:15;1.40;;;0.60;;
20649;SDS011;10484;48.736;9.332;2022-11-20T10:49:42;1.70;;;0.70;;
20649;SDS011;10484;48.736;9.332;2022-11-20T10:52:26;0.93;;;0.60;;
20649;SDS011;10484;48.736;9.332;2022-11-20T10:58:13;1.13;;;0.77;;
20649;SDS011;10484;48.736;9.332;2022-11-20T11:00:47;0.65;;;0.57;;
20649;SDS011;10484;48.736;9.332;2022-11-20T11:03:20;0.97;;;0.70;;
20649;SDS011;10484;48.736;9.332;2022-11-20T11:08:23;1.20;;;0.60;;
20649;SDS011;10484;48.736;9.332;2022-11-20T11:10:54;1.30;;;1.20;;
20649;SDS011;10484;48.736;9.332;2022-11-20T11:13:28;0.80;;;0.50;;
20649;SDS011;10484;48.736;9.332;2022-11-20T11:15:55;0.90;;;0.70;;
20649;SDS011;10484;48.736;9.332;2022-11-20T11:18:32;2.70;;;1.37;;
20649;SDS011;10484;48.736;9.332;2022-11-20T11:21:00;4.60;;;3.27;;
20649;SDS011;10484;48.736;9.332;2022-11-20T11:23:38;3.50;;;2.30;;
20649;SDS011;10484;48.736;9.332;2022-11-20T11:26:06;2.70;;;1.60;;
20649;SDS011;10484;48.736;9.332;2022-11-20T11:28:42;1.47;;;1.00;;
20649;SDS011;10484;48.736;9.332;2022-11-20T11:31:25;2.40;;;0.70;;
20649;SDS011;10484;48.736;9.332;2022-11-20T11:34:11;0.97;;;0.50;;
20649;SDS011;10484;48.736;9.332;2022-11-20T11:36:41;1.00;;;0.87;;
20649;SDS011;10484;48.736;9.332;2022-11-20T11:39:14;0.80;;;0.80;;
20649;SDS011;10484;48.736;9.332;2022-11-20T11:41:42;1.67;;;1.20;;
20649;SDS011;10484;48.736;9.332;2022-11-20T11:44:18;1.37;;;1.27;;
20649;SDS011;10484;48.736;9.332;2022-11-20T11:47:10;2.15;;;1.45;;
20649;SDS011;10484;48.736;9.332;2022-11-20T11:49:46;2.17;;;1.25;;
20649;SDS011;10484;48.736;9.332;2022-11-20T11:52:13;2.43;;;1.60;;
20649;SDS011;10484;48.736;9.332;2022-11-20T11:54:52;1.43;;;1.30;;
20649;SDS011;10484;48.736;9.332;2022-11-20T12:00:08;1.70;;;1.60;;
20649;SDS011;10484;48.736;9.332;2022-11-20T12:07:52;2.40;;;1.40;;
20649;SDS011;10484;48.736;9.332;2022-11-20T12:10:44;2.30;;;1.10;;
20649;SDS011;10484;48.736;9.332;2022-11-20T12:15:49;2.80;;;1.00;;
20649;SDS011;10484;48.736;9.332;2022-11-20T12:18:18;1.00;;;0.90;;
20649;SDS011;10484;48.736;9.332;2022-11-20T12:26:49;1.00;;;0.87;;
20649;SDS011;10484;48.736;9.332;2022-11-20T12:34:44;1.17;;;0.70;;
20649;SDS011;10484;48.736;9.332;2022-11-20T12:42:56;3.53;;;1.30;;
20649;SDS011;10484;48.736;9.332;2022-11-20T12:56:37;0.87;;;0.70;;
20649;SDS011;10484;48.736;9.332;2022-11-20T12:59:29;1.27;;;1.10;;
20649;SDS011;10484;48.736;9.332;2022-11-20T13:07:41;0.90;;;0.63;;
20649;SDS011;10484;48.736;9.332;2022-11-20T13:10:13;5.80;;;1.07;;
20649;SDS011;10484;48.736;9.332;2022-11-20T13:12:55;1.30;;;0.93;;
20649;SDS011;10484;48.736;9.332;2022-11-20T13:15:39;1.80;;;1.23;;
20649;SDS011;10484;48.736;9.332;2022-11-20T13:18:20;1.43;;;0.80;;
20649;SDS011;10484;48.736;9.332;2022-11-20T13:20:47;1.63;;;0.60;;
20649;SDS011;10484;48.736;9.332;2022-11-20T13:23:24;0.93;;;0.70;;
20649;SDS011;10484;48.736;9.332;2022-11-20T13:26:02;0.53;;;0.53;;
20649;SDS011;10484;48.736;9.332;2022-11-20T13:28:30;4.40;;;1.50;;
20649;SDS011;10484;48.736;9.332;2022-11-20T13:30:57;3.23;;;1.07;;
20649;SDS011;10484;48.736;9.332;2022-11-20T13:33:25;2.60;;;0.73;;
20649;SDS011;10484;48.736;9.332;2022-11-20T13:36:03;0.80;;;0.50;;
20649;SDS011;10484;48.736;9.332;2022-11-20T13:38:50;2.37;;;0.80;;
20649;SDS011;10484;48.736;9.332;2022-11-20T13:41:23;1.17;;;0.80;;
20649;SDS011;10484;48.736;9.332;2022-11-20T13:46:39;1.90;;;0.53;;
20649;SDS011;10484;48.736;9.332;2022-11-20T13:49:08;1.23;;;0.70;;
20649;SDS011;10484;48.736;9.332;2022-11-20T13:51:44;0.70;;;0.50;;
20649;SDS011;10484;48.736;9.332;2022-11-20T13:56:48;1.73;;;0.80;;
20649;SDS011;10484;48.736;9.332;2022-11-20T13:59:40;1.83;;;0.80;;
20649;SDS011;10484;48.736;9.332;2022-11-20T14:02:23;1.40;;;1.00;;
20649;SDS011;10484;48.736;9.332;2022-11-20T14:04:52;0.77;;;0.47;;
20649;SDS011;10484;48.736;9.332;2022-11-20T14:07:20;2.00;;;0.70;;
20649;SDS011;10484;48.736;9.332;2022-11-20T14:09:54;1.27;;;0.50;;
20649;SDS011;10484;48.736;9.332;2022-11-20T14:12:22;1.70;;;0.80;;
20649;SDS011;10484;48.736;9.332;2022-11-20T14:14:53;1.03;;;0.53;;
20649;SDS011;10484;48.736;9.332;2022-11-20T14:17:37;1.50;;;0.70;;
20649;SDS011;10484;48.736;9.332;2022-11-20T14:20:06;1.17;;;0.50;;
20649;SDS011;10484;48.736;9.332;2022-11-20T14:22:39;0.70;;;0.53;;
20649;SDS011;10484;48.736;9.332;2022-11-20T14:27:42;1.70;;;0.80;;
20649;SDS011;10484;48.736;9.332;2022-11-20T14:30:14;1.20;;;0.60;;
20649;SDS011;10484;48.736;9.332;2022-11-20T14:32:41;1.53;;;1.23;;
20649;SDS011;10484;48.736;9.332;2022-11-20T14:35:08;1.80;;;0.70;;
20649;SDS011;10484;48.736;9.332;2022-11-20T14:37:39;0.73;;;0.70;;
20649;SDS011;10484;48.736;9.332;2022-11-20T14:40:26;0.90;;;0.50;;
20649;SDS011;10484;48.736;9.332;2022-11-20T14:42:54;0.90;;;0.50;;
20649;SDS011;10484;48.736;9.332;2022-11-20T14:45:20;0.70;;;0.70;;
20649;SDS011;10484;48.736;9.332;2022-11-20T14:47:46;3.60;;;0.83;;
20649;SDS011;10484;48.736;9.332;2022-11-20T14:50:15;1.73;;;0.50;;
20649;SDS011;10484;48.736;9.332;2022-11-20T14:52:51;2.53;;;0.70;;
20649;SDS011;10484;48.736;9.332;2022-11-20T14:55:34;2.87;;;0.90;;
20649;SDS011;10484;48.736;9.332;2022-11-20T14:58:22;3.00;;;1.00;;
20649;SDS011;10484;48.736;9.332;2022-11-20T15:03:22;1.73;;;1.03;;
20649;SDS011;10484;48.736;9.332;2022-11-20T15:05:49;3.33;;;1.00;;
20649;SDS011;10484;48.736;9.332;2022-11-20T15:08:15;8.43;;;2.20;;
20649;SDS011;10484;48.736;9.332;2022-11-20T15:10:45;6.60;;;3.30;;
20649;SDS011;10484;48.736;9.332;2022-11-20T15:13:17;7.23;;;3.43;;
20649;SDS011;10484;48.736;9.332;2022-11-20T15:15:53;5.50;;;2.13;;
20649;SDS011;10484;48.736;9.332;2022-11-20T15:18:25;7.83;;;2.33;;
20649;SDS011;10484;48.736;9.332;2022-11-20T15:20:57;5.20;;;2.50;;
20649;SDS011;10484;48.736;9.332;2022-11-20T15:23:27;4.07;;;2.43;;
20649;SDS011;10484;48.736;9.332;2022-11-20T15:25:53;8.47;;;3.27;;
20649;SDS011;10484;48.736;9.332;2022-11-20T15:28:25;4.17;;;1.80;;
20649;SDS011;10484;48.736;9.332;2022-11-20T15:30:55;4.37;;;3.07;;
20649;SDS011;10484;48.736;9.332;2022-11-20T15:33:21;10.50;;;3.00;;
20649;SDS011;10484;48.736;9.332;2022-11-20T15:35:47;9.00;;;3.83;;
20649;SDS011;10484;48.736;9.332;2022-11-20T15:38:13;4.67;;;1.83;;
20649;SDS011;10484;48.736;9.332;2022-11-20T15:40:39;6.90;;;2.60;;
20649;SDS011;10484;48.736;9.332;2022-11-20T15:43:05;2.60;;;1.40;;
20649;SDS011;10484;48.736;9.332;2022-11-20T15:45:44;4.30;;;1.70;;
20649;SDS011;10484;48.736;9.332;2022-11-20T15:48:17;2.83;;;1.37;;
20649;SDS011;10484;48.736;9.332;2022-11-20T15:50:52;1.40;;;1.00;;
20649;SDS011;10484;48.736;9.332;2022-11-20T15:53:22;1.73;;;0.90;;
20649;SDS011;10484;48.736;9.332;2022-11-20T15:55:48;1.10;;;1.00;;
20649;SDS011;10484;48.736;9.332;2022-11-20T15:58:14;2.47;;;1.13;;
20649;SDS011;10484;48.736;9.332;2022-11-20T16:00:41;1.47;;;0.90;;
20649;SDS011;10484;48.736;9.332;2022-11-20T16:03:09;1.50;;;1.07;;
20649;SDS011;10484;48.736;9.332;2022-11-20T16:05:38;1.90;;;0.63;;
20649;SDS011;10484;48.736;9.332;2022-11-20T16:08:04;1.60;;;1.10;;
20649;SDS011;10484;48.736;9.332;2022-11-20T16:10:29;2.00;;;1.20;;
20649;SDS011;10484;48.736;9.332;2022-11-20T16:12:55;1.77;;;1.00;;
20649;SDS011;10484;48.736;9.332;2022-11-20T16:15:40;2.53;;;2.10;;
20649;SDS011;10484;48.736;9.332;2022-11-20T16:18:21;1.10;;;0.90;;
20649;SDS011;10484;48.736;9.332;2022-11-20T16:20:48;1.43;;;0.90;;
20649;SDS011;10484;48.736;9.332;2022-11-20T16:23:16;2.63;;;1.73;;
20649;SDS011;10484;48.736;9.332;2022-11-20T16:25:42;2.20;;;1.13;;
20649;SDS011;10484;48.736;9.332;2022-11-20T16:28:09;5.57;;;1.80;;
20649;SDS011;10484;48.736;9.332;2022-11-20T16:30:35;1.60;;;1.10;;
20649;SDS011;10484;48.736;9.332;2022-11-20T16:33:01;3.10;;;1.60;;
20649;SDS011;10484;48.736;9.332;2022-11-20T16:35:28;4.20;;;2.00;;
20649;SDS011;10484;48.736;9.332;2022-11-20T16:37:55;3.67;;;2.10;;